Time;durP1;ratioP1;P1;durP2;ratioP2;P2;SDS_P1;SDS_P2;PMS_P1;PMS_P2;Temp;Humidity;BMP_temperature;BMP_pressure;BME280_temperature;BME280_humidity;BME280_pressure;Samples;Min_cycle;Max_cycle;Signal;HPM_P1;HPM_P2
2021/09/20 00:01:25;;;;;;;6.93;4.00;;;14.00;99.90;;;;;;5018929;28;20544;-78
2021/09/20 00:03:53;;;;;;;4.80;4.30;;;14.00;99.90;;;;;;5018922;28;20447;-78
2021/09/20 00:06:23;;;;;;;5.30;4.80;;;14.00;99.90;;;;;;5019518;28;20207;-78
2021/09/20 00:08:51;;;;;;;5.27;4.00;;;14.00;99.90;;;;;;5021561;28;20804;-78
2021/09/20 00:11:19;;;;;;;4.57;4.10;;;14.00;99.90;;;;;;5019757;28;20458;-78
2021/09/20 00:13:48;;;;;;;4.50;3.90;;;13.90;99.90;;;;;;5019226;28;20455;-78
2021/09/20 00:16:16;;;;;;;5.23;3.90;;;13.90;99.90;;;;;;5018400;28;20529;-78
2021/09/20 00:18:44;;;;;;;4.40;4.00;;;13.90;99.90;;;;;;5021285;28;20444;-78
2021/09/20 00:21:13;;;;;;;5.70;4.30;;;13.90;99.90;;;;;;5021880;28;20468;-78
2021/09/20 00:23:43;;;;;;;4.80;4.10;;;13.90;99.90;;;;;;5020244;28;20483;-78
2021/09/20 00:26:11;;;;;;;6.73;3.90;;;13.80;99.90;;;;;;5016674;28;20572;-78
2021/09/20 00:28:39;;;;;;;4.60;4.20;;;13.80;99.90;;;;;;5019954;28;20483;-78
2021/09/20 00:31:07;;;;;;;5.13;4.27;;;13.80;99.90;;;;;;5021002;28;20443;-78
2021/09/20 00:33:36;;;;;;;4.47;3.73;;;13.90;99.90;;;;;;5019338;28;20466;-78
2021/09/20 00:36:04;;;;;;;4.67;4.20;;;13.80;99.90;;;;;;5020436;28;20466;-78
2021/09/20 00:38:33;;;;;;;4.50;4.10;;;13.80;99.90;;;;;;5018919;28;20822;-78
2021/09/20 00:41:03;;;;;;;4.67;3.60;;;13.80;99.90;;;;;;5017928;28;20484;-78
2021/09/20 00:43:31;;;;;;;5.75;4.03;;;13.80;99.90;;;;;;5017111;28;20881;-78
2021/09/20 00:45:59;;;;;;;4.50;4.10;;;13.90;99.90;;;;;;5020148;28;20228;-78
2021/09/20 00:48:28;;;;;;;4.27;3.87;;;13.90;99.90;;;;;;5018511;28;20479;-78
2021/09/20 00:50:56;;;;;;;3.97;3.57;;;13.90;99.90;;;;;;5019880;28;20440;-78
2021/09/20 00:53:24;;;;;;;5.43;3.80;;;13.90;99.90;;;;;;5018057;28;20451;-78
2021/09/20 00:55:52;;;;;;;4.13;3.60;;;13.90;99.90;;;;;;5018459;28;20495;-78
2021/09/20 00:58:22;;;;;;;4.40;3.87;;;13.80;99.90;;;;;;5019445;28;20436;-78
2021/09/20 01:00:50;;;;;;;4.00;3.70;;;13.80;99.90;;;;;;5018730;28;20487;-78
2021/09/20 01:03:19;;;;;;;4.30;3.57;;;13.80;99.90;;;;;;5016028;28;20464;-78
2021/09/20 01:05:48;;;;;;;4.20;3.80;;;13.80;99.90;;;;;;5019925;28;20472;-78
2021/09/20 01:08:16;;;;;;;4.90;3.50;;;13.80;99.90;;;;;;5018644;28;21008;-78
2021/09/20 01:10:44;;;;;;;4.70;3.60;;;13.80;99.90;;;;;;5018025;28;20462;-78
2021/09/20 01:13:12;;;;;;;8.20;3.60;;;13.80;99.90;;;;;;5018610;28;20542;-78
2021/09/20 01:15:42;;;;;;;4.20;3.05;;;13.80;99.90;;;;;;5018379;28;20444;-78
2021/09/20 01:18:10;;;;;;;4.10;3.70;;;13.80;99.90;;;;;;5019480;28;20662;-78
2021/09/20 01:20:38;;;;;;;5.30;3.83;;;13.80;99.90;;;;;;5017601;28;20456;-78
2021/09/20 01:23:08;;;;;;;4.45;4.05;;;13.80;99.90;;;;;;5018347;28;20466;-78
2021/09/20 01:25:37;;;;;;;5.27;4.40;;;13.90;99.90;;;;;;5015767;28;20237;-77
2021/09/20 01:28:06;;;;;;;4.13;3.73;;;13.90;99.90;;;;;;5018162;28;20571;-78
2021/09/20 01:30:34;;;;;;;4.17;3.77;;;13.80;99.90;;;;;;5018024;28;20828;-78
2021/09/20 01:33:02;;;;;;;4.63;3.50;;;13.80;99.90;;;;;;5018312;28;20456;-78
2021/09/20 01:35:31;;;;;;;4.60;3.47;;;13.80;99.90;;;;;;5010165;28;20567;-78
2021/09/20 01:37:59;;;;;;;3.63;3.20;;;13.80;99.90;;;;;;5018013;28;20450;-78
2021/09/20 01:40:29;;;;;;;4.90;3.33;;;13.80;99.90;;;;;;5017707;28;20515;-78
2021/09/20 01:42:57;;;;;;;4.00;3.57;;;13.70;99.90;;;;;;5017571;28;20538;-78
2021/09/20 01:45:26;;;;;;;4.47;3.80;;;13.70;99.90;;;;;;5017051;28;20459;-78
2021/09/20 01:47:55;;;;;;;6.23;3.67;;;13.70;99.90;;;;;;5017600;28;20494;-78
2021/09/20 01:50:23;;;;;;;4.60;2.87;;;13.70;99.90;;;;;;5017368;28;20776;-78
2021/09/20 01:52:52;;;;;;;4.43;4.03;;;13.70;99.90;;;;;;5018908;28;20448;-78
2021/09/20 01:55:20;;;;;;;4.05;3.38;;;13.70;99.90;;;;;;5018369;28;20486;-78
2021/09/20 01:57:53;;;;;;;3.53;3.23;;;13.70;99.90;;;;;;5022265;28;20199;-78
2021/09/20 02:00:21;;;;;;;7.30;4.03;;;13.60;99.90;;;;;;5021273;28;20460;-78
2021/09/20 02:02:50;;;;;;;4.13;3.72;;;13.60;99.90;;;;;;5020053;28;20479;-78
2021/09/20 02:05:18;;;;;;;4.20;3.30;;;13.70;99.90;;;;;;5021518;28;20275;-78
2021/09/20 02:07:46;;;;;;;3.50;2.97;;;13.70;99.90;;;;;;5021965;28;20499;-78
2021/09/20 02:10:17;;;;;;;6.93;3.90;;;13.70;99.90;;;;;;5020505;28;20861;-78
2021/09/20 02:12:46;;;;;;;3.63;3.33;;;13.70;99.90;;;;;;5020616;28;20515;-78
2021/09/20 02:15:16;;;;;;;4.77;4.33;;;13.60;99.90;;;;;;5021718;28;20551;-78
2021/09/20 02:17:44;;;;;;;6.97;4.10;;;13.60;99.90;;;;;;5022240;28;20443;-78
2021/09/20 02:20:13;;;;;;;4.17;3.70;;;13.60;99.90;;;;;;5018585;28;20986;-78
2021/09/20 02:22:41;;;;;;;4.23;3.57;;;13.60;99.90;;;;;;5019991;28;20503;-78
2021/09/20 02:25:12;;;;;;;4.90;3.47;;;13.60;99.90;;;;;;5021894;28;20546;-79
2021/09/20 02:27:41;;;;;;;4.60;3.27;;;13.50;99.90;;;;;;5021439;28;20917;-78
2021/09/20 02:30:10;;;;;;;3.70;3.40;;;13.60;99.90;;;;;;5020163;28;20466;-78
2021/09/20 02:32:40;;;;;;;4.47;3.80;;;13.60;99.90;;;;;;5020476;28;20452;-79
2021/09/20 02:35:09;;;;;;;5.45;3.80;;;13.50;99.90;;;;;;5019821;28;20465;-78
2021/09/20 02:37:39;;;;;;;4.17;3.30;;;13.60;99.90;;;;;;5020960;28;20251;-79
2021/09/20 02:40:09;;;;;;;4.57;3.30;;;13.60;99.90;;;;;;5013245;28;20475;-78
2021/09/20 02:42:37;;;;;;;3.97;3.40;;;13.60;99.90;;;;;;5001199;28;20480;-78
2021/09/20 02:45:07;;;;;;;3.77;3.20;;;13.60;99.90;;;;;;5000394;28;20576;-78
2021/09/20 02:47:36;;;;;;;5.00;3.87;;;13.50;99.90;;;;;;5000704;28;20449;-78
2021/09/20 02:50:08;;;;;;;5.80;4.10;;;13.50;99.90;;;;;;5006933;28;20972;-78
2021/09/20 02:52:37;;;;;;;4.93;3.90;;;13.50;99.90;;;;;;5020514;28;20955;-78
2021/09/20 02:55:08;;;;;;;3.70;3.40;;;13.50;99.90;;;;;;5020517;28;20884;-78
2021/09/20 02:57:36;;;;;;;4.53;4.13;;;13.50;99.90;;;;;;5019022;28;20447;-78
2021/09/20 03:00:07;;;;;;;4.67;4.13;;;13.50;99.90;;;;;;5019872;28;20458;-78
2021/09/20 03:02:36;;;;;;;5.37;3.80;;;13.40;99.90;;;;;;5019688;28;20488;-78
2021/09/20 03:05:07;;;;;;;9.87;4.33;;;13.50;99.90;;;;;;5019756;28;20464;-78
2021/09/20 03:07:35;;;;;;;3.67;3.37;;;13.40;99.90;;;;;;5021022;28;20444;-78
2021/09/20 03:10:05;;;;;;;6.00;4.23;;;13.40;99.90;;;;;;5019657;28;20476;-78
2021/09/20 03:12:33;;;;;;;4.33;3.93;;;13.40;99.90;;;;;;5019934;28;20852;-78
2021/09/20 03:15:01;;;;;;;4.82;3.50;;;13.40;99.90;;;;;;5019398;28;20461;-78
2021/09/20 03:17:29;;;;;;;4.80;4.13;;;13.40;99.90;;;;;;5019710;28;20197;-78
2021/09/20 03:19:59;;;;;;;4.03;3.60;;;13.40;99.90;;;;;;5018475;28;20455;-78
2021/09/20 03:22:28;;;;;;;3.60;3.30;;;13.40;99.90;;;;;;5017893;28;20197;-78
2021/09/20 03:24:57;;;;;;;4.97;3.37;;;13.40;99.90;;;;;;5018984;28;20479;-79
2021/09/20 03:27:25;;;;;;;7.40;4.30;;;13.40;99.90;;;;;;5018940;28;20484;-78
2021/09/20 03:29:53;;;;;;;4.60;3.70;;;13.40;99.90;;;;;;5020556;28;20495;-78
2021/09/20 03:32:21;;;;;;;4.20;3.80;;;13.30;99.90;;;;;;5018898;28;20443;-78
2021/09/20 03:34:53;;;;;;;4.90;3.80;;;13.30;99.90;;;;;;5021611;28;20483;-78
2021/09/20 03:37:22;;;;;;;3.57;3.27;;;13.40;99.90;;;;;;5019660;28;20514;-79
2021/09/20 03:39:52;;;;;;;4.40;4.00;;;13.30;99.90;;;;;;5019623;28;20456;-78
2021/09/20 03:42:20;;;;;;;3.93;3.40;;;13.40;99.90;;;;;;5019724;28;20451;-78
2021/09/20 03:44:48;;;;;;;4.23;3.60;;;13.40;99.90;;;;;;5020055;28;20471;-78
2021/09/20 03:47:16;;;;;;;4.07;3.67;;;13.40;99.90;;;;;;5018133;28;20547;-78
2021/09/20 03:49:45;;;;;;;4.30;3.90;;;13.30;99.90;;;;;;5019922;28;20510;-78
2021/09/20 03:52:13;;;;;;;3.93;3.63;;;13.30;99.90;;;;;;5017626;28;20432;-78
2021/09/20 03:54:41;;;;;;;5.90;3.97;;;13.30;99.90;;;;;;5019410;28;20582;-78
2021/09/20 03:57:11;;;;;;;5.13;3.73;;;13.30;99.90;;;;;;5019305;28;20677;-78
2021/09/20 03:59:39;;;;;;;4.23;3.90;;;13.30;99.90;;;;;;5016920;28;20538;-77
2021/09/20 04:02:07;;;;;;;4.43;4.03;;;13.30;99.90;;;;;;5017126;28;20936;-78
2021/09/20 04:04:35;;;;;;;3.90;3.50;;;13.40;99.90;;;;;;5016105;28;20216;-78
2021/09/20 04:07:05;;;;;;;4.47;3.57;;;13.40;99.90;;;;;;5017114;28;20487;-78
2021/09/20 04:09:34;;;;;;;4.33;3.77;;;13.40;99.90;;;;;;5016975;28;20475;-78
2021/09/20 04:12:02;;;;;;;5.43;4.20;;;13.40;99.90;;;;;;5017948;28;20444;-78
2021/09/20 04:14:32;;;;;;;5.20;4.00;;;13.30;99.90;;;;;;5017707;28;20819;-77
2021/09/20 04:17:00;;;;;;;6.40;3.80;;;13.30;99.90;;;;;;5015772;28;20452;-77
2021/09/20 04:19:28;;;;;;;4.03;3.70;;;13.30;99.90;;;;;;5016350;28;20494;-77
2021/09/20 04:21:56;;;;;;;4.63;3.57;;;13.30;99.90;;;;;;5017702;28;20964;-78
2021/09/20 04:24:24;;;;;;;5.77;5.27;;;13.30;99.90;;;;;;5016202;28;20464;-78
2021/09/20 04:26:52;;;;;;;4.60;4.20;;;13.30;99.90;;;;;;5015531;28;20443;-78
2021/09/20 04:29:21;;;;;;;5.30;4.57;;;13.30;99.90;;;;;;5017520;28;20507;-77
2021/09/20 04:31:50;;;;;;;4.87;4.43;;;13.30;99.90;;;;;;5016796;28;20455;-78
2021/09/20 04:34:19;;;;;;;5.50;4.77;;;13.30;99.90;;;;;;5016803;28;20483;-77
2021/09/20 04:36:47;;;;;;;6.90;5.20;;;13.30;99.90;;;;;;5016768;28;20501;-78
2021/09/20 04:39:15;;;;;;;5.70;5.20;;;13.40;99.90;;;;;;5016386;28;20443;-78
2021/09/20 04:41:44;;;;;;;4.88;4.38;;;13.30;99.90;;;;;;5015274;28;20447;-78
2021/09/20 04:44:12;;;;;;;4.80;4.40;;;13.30;99.90;;;;;;5016237;28;20685;-78
2021/09/20 04:46:40;;;;;;;4.80;3.40;;;13.30;99.90;;;;;;5016813;28;20448;-78
2021/09/20 04:49:10;;;;;;;10.20;4.33;;;13.30;99.90;;;;;;5015922;28;20495;-77
2021/09/20 04:51:38;;;;;;;4.40;3.97;;;13.30;99.90;;;;;;5016665;28;20953;-77
2021/09/20 04:54:07;;;;;;;4.80;4.40;;;13.20;99.90;;;;;;5016500;28;20834;-78
2021/09/20 04:56:35;;;;;;;5.50;4.50;;;13.20;99.90;;;;;;5017280;28;20443;-78
2021/09/20 04:59:03;;;;;;;5.10;4.60;;;13.20;99.90;;;;;;5014900;28;20485;-78
2021/09/20 05:01:31;;;;;;;4.77;4.37;;;13.20;99.90;;;;;;5006588;28;20454;-77
2021/09/20 05:04:00;;;;;;;4.53;4.10;;;13.20;99.90;;;;;;5016760;28;20460;-78
2021/09/20 05:06:30;;;;;;;4.23;3.93;;;13.20;99.90;;;;;;5014753;28;20983;-77
2021/09/20 05:08:58;;;;;;;4.50;3.93;;;13.20;99.90;;;;;;5016468;28;20455;-78
2021/09/20 05:11:27;;;;;;;4.23;3.83;;;13.20;99.90;;;;;;5015955;28;21048;-77
2021/09/20 05:13:55;;;;;;;5.57;4.27;;;13.10;99.90;;;;;;5017392;28;20471;-78
2021/09/20 05:16:24;;;;;;;5.68;4.60;;;13.10;99.90;;;;;;5016851;28;20482;-77
2021/09/20 05:18:52;;;;;;;3.77;3.47;;;13.20;99.90;;;;;;5016385;28;20203;-78
2021/09/20 05:21:20;;;;;;;6.83;4.10;;;13.20;99.90;;;;;;5016528;28;20483;-78
2021/09/20 05:23:50;;;;;;;5.80;3.60;;;13.20;99.90;;;;;;5015785;28;20443;-78
2021/09/20 05:26:19;;;;;;;4.10;3.80;;;13.10;99.90;;;;;;5016284;28;20479;-78
2021/09/20 05:28:48;;;;;;;3.90;3.60;;;13.10;99.90;;;;;;5056580;22;20528;-77
2021/09/20 05:31:16;;;;;;;4.23;3.80;;;13.10;99.90;;;;;;5059961;28;20478;-78
2021/09/20 05:33:44;;;;;;;5.57;4.73;;;13.20;99.90;;;;;;5059372;28;20453;-77
2021/09/20 05:36:13;;;;;;;4.60;4.20;;;13.10;99.90;;;;;;5059444;28;20470;-78
2021/09/20 05:38:41;;;;;;;4.33;3.93;;;13.10;99.90;;;;;;5076040;28;20492;-78
2021/09/20 05:41:10;;;;;;;4.57;4.17;;;13.10;99.90;;;;;;5076380;28;20446;-78
2021/09/20 05:43:39;;;;;;;4.83;4.40;;;13.10;99.90;;;;;;5059639;28;20784;-78
2021/09/20 05:46:07;;;;;;;5.60;4.83;;;13.10;99.90;;;;;;5060001;28;20457;-78
2021/09/20 05:48:35;;;;;;;6.50;5.80;;;13.10;99.90;;;;;;5059145;28;20452;-78
2021/09/20 05:51:04;;;;;;;5.43;4.80;;;13.10;99.90;;;;;;5058793;28;20469;-77
2021/09/20 05:53:32;;;;;;;5.70;4.90;;;13.10;99.90;;;;;;5058943;28;20445;-78
2021/09/20 05:56:00;;;;;;;4.10;3.70;;;13.10;99.90;;;;;;5075648;28;20479;-78
2021/09/20 05:58:30;;;;;;;4.40;4.00;;;13.10;99.90;;;;;;5059134;28;20439;-78
2021/09/20 06:01:02;;;;;;;5.10;4.53;;;13.20;99.90;;;;;;5061109;28;20460;-78
2021/09/20 06:03:30;;;;;;;3.80;3.30;;;13.20;99.90;;;;;;5061655;28;20485;-78
2021/09/20 06:05:59;;;;;;;4.40;3.80;;;13.20;99.90;;;;;;5061798;28;20501;-78
2021/09/20 06:08:27;;;;;;;5.00;4.10;;;13.20;99.90;;;;;;5062771;28;20460;-78
2021/09/20 06:10:55;;;;;;;5.10;4.00;;;13.20;99.90;;;;;;5060647;28;20603;-78
2021/09/20 06:13:23;;;;;;;4.10;3.70;;;13.10;99.90;;;;;;5060779;28;20457;-78
2021/09/20 06:15:53;;;;;;;4.50;4.07;;;13.10;99.90;;;;;;5061128;28;20477;-78
2021/09/20 06:18:23;;;;;;;3.90;3.60;;;13.10;99.90;;;;;;5061561;28;20437;-78
2021/09/20 06:20:51;;;;;;;6.47;4.10;;;13.10;99.90;;;;;;5061831;28;20433;-79
2021/09/20 06:23:19;;;;;;;4.57;3.90;;;13.10;99.90;;;;;;5060949;28;20477;-78
2021/09/20 06:25:47;;;;;;;5.10;4.40;;;13.10;99.90;;;;;;5062344;28;20560;-79
2021/09/20 06:28:16;;;;;;;6.97;4.70;;;13.10;99.90;;;;;;5076551;28;20482;-78
2021/09/20 06:30:44;;;;;;;4.17;3.70;;;13.20;99.90;;;;;;5061416;28;20792;-78
2021/09/20 06:33:17;;;;;;;5.57;4.18;;;13.20;99.90;;;;;;5058963;28;20942;-78
2021/09/20 06:35:45;;;;;;;4.03;3.63;;;13.20;99.90;;;;;;5061503;28;20574;-78
2021/09/20 06:38:13;;;;;;;4.03;3.70;;;13.30;99.90;;;;;;5060302;28;20454;-78
2021/09/20 06:40:42;;;;;;;4.10;3.70;;;13.30;99.90;;;;;;5077542;28;20446;-78
2021/09/20 06:43:10;;;;;;;4.30;3.90;;;13.20;99.90;;;;;;5060429;28;20477;-78
2021/09/20 06:45:39;;;;;;;4.87;4.20;;;13.30;99.90;;;;;;5060927;28;20462;-78
2021/09/20 06:48:07;;;;;;;5.20;4.63;;;13.30;99.90;;;;;;5060746;28;20549;-78
2021/09/20 06:50:37;;;;;;;5.50;5.00;;;13.30;99.90;;;;;;5060525;28;20474;-78
2021/09/20 06:53:05;;;;;;;4.83;4.33;;;13.30;99.90;;;;;;5060416;28;20536;-78
2021/09/20 06:55:34;;;;;;;4.50;4.10;;;13.30;99.90;;;;;;5061178;28;20496;-78
2021/09/20 06:58:02;;;;;;;5.33;4.90;;;13.30;99.90;;;;;;5060262;28;20457;-78
2021/09/20 07:00:32;;;;;;;5.20;4.70;;;13.20;99.90;;;;;;5059885;28;20500;-78
2021/09/20 07:03:00;;;;;;;5.70;4.83;;;13.30;99.90;;;;;;5062556;28;20438;-78
2021/09/20 07:05:29;;;;;;;5.33;4.27;;;13.30;99.90;;;;;;5062552;28;20469;-78
2021/09/20 07:08:00;;;;;;;5.90;3.70;;;13.30;99.90;;;;;;5061192;28;20453;-78
2021/09/20 07:10:29;;;;;;;5.10;4.27;;;13.30;99.90;;;;;;5062159;28;20485;-78
2021/09/20 07:12:58;;;;;;;5.80;4.87;;;13.30;99.90;;;;;;5061704;28;20465;-78
2021/09/20 07:15:26;;;;;;;6.07;4.50;;;13.30;99.90;;;;;;5077934;28;21002;-78
2021/09/20 07:17:55;;;;;;;5.10;4.60;;;13.30;99.90;;;;;;5060542;28;20526;-77
2021/09/20 07:20:23;;;;;;;4.80;4.40;;;13.40;99.90;;;;;;5058430;28;20965;-77
2021/09/20 07:22:51;;;;;;;4.10;3.80;;;13.40;99.90;;;;;;5060098;28;20441;-78
2021/09/20 07:25:21;;;;;;;4.80;4.23;;;13.40;99.90;;;;;;5058241;28;20979;-78
2021/09/20 07:27:49;;;;;;;6.27;4.60;;;13.40;99.90;;;;;;5058266;28;20454;-78
2021/09/20 07:30:18;;;;;;;4.80;4.40;;;13.40;99.90;;;;;;5058613;28;20442;-77
2021/09/20 07:32:48;;;;;;;4.40;4.07;;;13.40;99.90;;;;;;5058747;28;20482;-78
2021/09/20 07:35:17;;;;;;;4.87;4.13;;;13.40;99.90;;;;;;5058089;28;20474;-78
2021/09/20 07:37:46;;;;;;;7.17;4.63;;;13.40;99.90;;;;;;5058049;28;20450;-77
2021/09/20 07:40:16;;;;;;;4.83;4.27;;;13.50;99.90;;;;;;5059521;28;20450;-77
2021/09/20 07:42:46;;;;;;;4.43;3.70;;;13.50;99.90;;;;;;5057318;28;20446;-77
2021/09/20 07:45:16;;;;;;;4.97;3.70;;;13.50;99.90;;;;;;5057742;28;20419;-78
2021/09/20 07:47:45;;;;;;;4.10;3.57;;;13.50;99.90;;;;;;5057976;28;20192;-77
2021/09/20 07:50:15;;;;;;;4.30;3.87;;;13.60;99.90;;;;;;5058467;28;20519;-77
2021/09/20 07:52:44;;;;;;;5.93;4.10;;;13.60;99.90;;;;;;5057971;28;20523;-78
2021/09/20 07:55:13;;;;;;;5.23;4.37;;;13.60;99.90;;;;;;5057925;28;20564;-77
2021/09/20 07:57:42;;;;;;;4.10;3.47;;;13.70;99.90;;;;;;5057654;28;20540;-77
2021/09/20 08:00:13;;;;;;;4.00;3.60;;;13.70;99.90;;;;;;5059090;28;20448;-78
2021/09/20 08:02:41;;;;;;;4.20;3.70;;;13.70;99.90;;;;;;5057551;28;20541;-77
2021/09/20 08:05:11;;;;;;;5.57;3.80;;;13.70;99.90;;;;;;5059123;28;20484;-78
2021/09/20 08:07:39;;;;;;;4.00;3.63;;;13.80;99.90;;;;;;5058101;28;20520;-78
2021/09/20 08:10:09;;;;;;;5.27;3.83;;;13.80;99.90;;;;;;5058146;28;20445;-78
2021/09/20 08:12:37;;;;;;;4.80;4.40;;;13.80;99.90;;;;;;5057608;28;20551;-78
2021/09/20 08:15:07;;;;;;;5.13;3.87;;;13.90;99.90;;;;;;5056969;28;20564;-78
2021/09/20 08:17:37;;;;;;;3.77;3.40;;;13.90;99.90;;;;;;5057383;28;20500;-77
2021/09/20 08:20:08;;;;;;;6.63;4.07;;;13.90;99.90;;;;;;5056576;28;20439;-78
2021/09/20 08:22:36;;;;;;;4.33;3.93;;;13.90;99.90;;;;;;5057754;28;20951;-78
2021/09/20 08:25:06;;;;;;;6.40;4.07;;;14.00;99.90;;;;;;5056855;28;20466;-78
2021/09/20 08:27:35;;;;;;;4.15;3.75;;;14.00;99.90;;;;;;5056295;28;20505;-78
2021/09/20 08:30:04;;;;;;;7.40;3.67;;;14.10;99.90;;;;;;5057528;28;20263;-78
2021/09/20 08:32:32;;;;;;;6.25;4.00;;;14.10;99.90;;;;;;5073873;28;20458;-79
2021/09/20 08:35:03;;;;;;;3.97;3.43;;;14.20;99.90;;;;;;5057775;28;20216;-78
2021/09/20 08:37:31;;;;;;;4.13;3.73;;;14.20;99.90;;;;;;5057147;28;20482;-78
2021/09/20 08:39:59;;;;;;;3.90;3.50;;;14.20;99.90;;;;;;5073676;28;20525;-78
2021/09/20 08:42:28;;;;;;;3.90;3.50;;;14.20;99.90;;;;;;5057802;28;20450;-78
2021/09/20 08:44:56;;;;;;;3.77;3.30;;;14.30;99.90;;;;;;5058751;28;20465;-78
2021/09/20 08:47:24;;;;;;;3.20;2.90;;;14.30;99.90;;;;;;5057364;28;20936;-78
2021/09/20 08:49:53;;;;;;;3.73;3.43;;;14.30;99.90;;;;;;5059193;28;20500;-78
2021/09/20 08:52:26;;;;;;;3.60;3.30;;;14.40;99.90;;;;;;5056974;28;20465;-78
2021/09/20 08:54:55;;;;;;;4.40;3.63;;;14.40;99.90;;;;;;5058096;28;20473;-78
2021/09/20 08:57:25;;;;;;;4.17;3.00;;;14.40;99.90;;;;;;5057026;28;20446;-78
2021/09/20 08:59:53;;;;;;;3.07;2.87;;;14.50;99.90;;;;;;5074328;28;20484;-78
2021/09/20 09:02:22;;;;;;;3.90;3.27;;;14.50;99.90;;;;;;5057908;28;20442;-78
2021/09/20 09:04:51;;;;;;;3.57;3.00;;;14.50;99.90;;;;;;5060029;28;20498;-78
2021/09/20 09:07:20;;;;;;;4.45;3.50;;;14.60;99.90;;;;;;5060998;28;20451;-78
2021/09/20 09:09:51;;;;;;;6.00;3.00;;;14.70;99.90;;;;;;5061598;28;20669;-78
2021/09/20 09:12:23;;;;;;;3.27;2.97;;;14.70;99.90;;;;;;5062251;28;20477;-79
2021/09/20 09:14:54;;;;;;;3.70;3.20;;;14.80;99.90;;;;;;5059224;28;20451;-78
2021/09/20 09:17:24;;;;;;;4.37;3.20;;;15.00;99.90;;;;;;5061082;28;20453;-78
2021/09/20 09:19:59;;;;;;;3.90;2.93;;;15.10;99.90;;;;;;5077739;28;20441;-78
2021/09/20 09:22:40;;;;;;;2.87;2.60;;;15.20;99.90;;;;;;5061399;28;20446;-78
2021/09/20 09:25:12;;;;;;;4.50;2.57;;;15.20;99.90;;;;;;5060843;28;20515;-78
2021/09/20 09:27:41;;;;;;;3.77;2.83;;;15.30;99.90;;;;;;5060448;28;20462;-78
2021/09/20 09:30:14;;;;;;;4.90;2.90;;;15.30;99.90;;;;;;5061005;28;21053;-78
2021/09/20 09:32:44;;;;;;;3.53;2.70;;;15.30;99.90;;;;;;5061673;28;20468;-78
2021/09/20 09:35:16;;;;;;;3.57;3.23;;;15.40;99.90;;;;;;5077579;28;20568;-78
2021/09/20 09:37:47;;;;;;;3.43;3.10;;;15.50;99.90;;;;;;5059493;28;20461;-78
2021/09/20 09:40:21;;;;;;;3.10;2.80;;;15.60;99.90;;;;;;5060085;28;20465;-78
2021/09/20 09:42:52;;;;;;;3.17;2.80;;;15.60;99.90;;;;;;5060802;28;20465;-78
2021/09/20 09:45:25;;;;;;;2.83;2.40;;;15.60;99.90;;;;;;5060504;28;20473;-78
2021/09/20 09:48:11;;;;;;;5.32;2.83;;;15.70;99.90;;;;;;5061476;28;20426;-78
2021/09/20 09:50:41;;;;;;;3.73;3.20;;;15.70;99.90;;;;;;5063537;28;20250;-78
2021/09/20 09:53:23;;;;;;;2.33;2.13;;;15.80;99.90;;;;;;5059164;28;20479;-78
2021/09/20 09:55:53;;;;;;;2.13;1.93;;;15.80;99.90;;;;;;5060071;28;20291;-78
2021/09/20 09:58:22;;;;;;;3.10;2.50;;;15.90;99.90;;;;;;5059466;28;20444;-78
2021/09/20 10:00:50;;;;;;;3.40;2.20;;;15.90;99.90;;;;;;5060394;28;20450;-78
2021/09/20 10:03:19;;;;;;;2.40;2.20;;;15.90;99.90;;;;;;5062134;28;20827;-78
2021/09/20 10:05:58;;;;;;;4.07;2.20;;;15.90;99.90;;;;;;5061225;28;20953;-78
2021/09/20 10:08:27;;;;;;;2.57;2.30;;;16.00;99.90;;;;;;5059663;28;20939;-78
2021/09/20 10:10:56;;;;;;;3.53;3.07;;;16.00;99.90;;;;;;5061078;28;20451;-78
2021/09/20 10:13:25;;;;;;;2.67;2.47;;;16.00;99.90;;;;;;5060465;28;20808;-78
2021/09/20 10:15:54;;;;;;;3.30;2.13;;;16.00;99.90;;;;;;5058669;28;20440;-78
2021/09/20 10:18:23;;;;;;;2.43;2.10;;;16.00;99.90;;;;;;5059774;28;20457;-78
2021/09/20 10:20:52;;;;;;;2.20;2.00;;;15.90;99.90;;;;;;5059955;28;20446;-78
2021/09/20 10:23:20;;;;;;;2.30;1.93;;;15.90;99.90;;;;;;5060129;28;21001;-78
2021/09/20 10:25:48;;;;;;;2.63;2.20;;;15.80;99.90;;;;;;5061629;28;20420;-78
2021/09/20 10:28:18;;;;;;;2.10;1.90;;;15.80;99.90;;;;;;5059586;28;20464;-78
2021/09/20 10:30:48;;;;;;;1.73;1.63;;;15.80;99.90;;;;;;5059915;28;20478;-78
2021/09/20 10:33:16;;;;;;;2.77;2.33;;;15.80;99.90;;;;;;5058886;28;20533;-78
2021/09/20 10:35:53;;;;;;;1.70;1.60;;;15.90;99.40;;;;;;5059161;28;20441;-78
2021/09/20 10:38:29;;;;;;;2.30;1.70;;;15.90;99.10;;;;;;5058712;28;20417;-77
2021/09/20 10:41:12;;;;;;;2.00;1.90;;;15.90;99.20;;;;;;5060299;28;20454;-78
2021/09/20 10:43:43;;;;;;;2.07;1.87;;;16.00;99.10;;;;;;5059961;28;20477;-78
2021/09/20 10:46:33;;;;;;;2.13;1.40;;;16.00;99.00;;;;;;5058947;28;20409;-78
2021/09/20 10:49:02;;;;;;;3.83;1.80;;;16.00;98.90;;;;;;5059147;28;20863;-78
2021/09/20 10:51:35;;;;;;;2.70;1.80;;;16.00;98.60;;;;;;5060696;28;20787;-78
2021/09/20 10:54:19;;;;;;;2.90;2.40;;;16.00;98.20;;;;;;5059337;28;20549;-78
2021/09/20 10:56:50;;;;;;;2.70;1.90;;;16.00;97.90;;;;;;5059437;28;20444;-77
2021/09/20 10:59:30;;;;;;;2.33;2.13;;;16.00;97.90;;;;;;5058699;28;20478;-77
2021/09/20 11:02:11;;;;;;;1.67;1.57;;;16.00;97.90;;;;;;5058527;28;20488;-79
2021/09/20 11:04:41;;;;;;;2.25;2.05;;;15.90;97.60;;;;;;5057442;28;20442;-78
2021/09/20 11:07:19;;;;;;;2.00;1.80;;;15.90;96.90;;;;;;5057845;28;20569;-78
2021/09/20 11:10:02;;;;;;;2.77;2.20;;;15.90;97.00;;;;;;5057732;28;20492;-77
2021/09/20 11:12:34;;;;;;;2.53;2.30;;;15.90;97.00;;;;;;5057242;28;20440;-78
2021/09/20 11:15:13;;;;;;;2.40;1.80;;;15.90;97.20;;;;;;5074045;28;20465;-78
2021/09/20 11:17:45;;;;;;;2.07;1.80;;;15.90;97.20;;;;;;5058718;28;20393;-77
2021/09/20 11:20:27;;;;;;;2.80;2.47;;;16.00;97.30;;;;;;5058392;28;20425;-78
2021/09/20 11:23:31;;;;;;;2.93;1.83;;;16.00;97.10;;;;;;5058753;28;20405;-78
2021/09/20 11:26:10;;;;;;;1.73;1.50;;;16.10;97.00;;;;;;5056382;28;20444;-77
2021/09/20 11:28:42;;;;;;;2.43;2.10;;;16.00;97.00;;;;;;5057980;28;20464;-78
2021/09/20 11:31:12;;;;;;;1.93;1.73;;;16.10;96.90;;;;;;5073574;28;20517;-77
2021/09/20 11:33:43;;;;;;;2.27;2.07;;;16.10;96.90;;;;;;5058058;28;20572;-78
2021/09/20 11:36:20;;;;;;;3.60;3.30;;;16.10;97.10;;;;;;5056971;28;20472;-77
2021/09/20 11:38:51;;;;;;;3.10;2.10;;;16.10;96.80;;;;;;5057231;28;20438;-77
2021/09/20 11:41:22;;;;;;;2.83;2.13;;;16.20;96.70;;;;;;5057922;28;20409;-77
2021/09/20 11:43:51;;;;;;;2.37;1.83;;;16.20;96.50;;;;;;5056960;28;20419;-78
2021/09/20 11:46:23;;;;;;;3.73;2.07;;;16.20;96.50;;;;;;5056608;28;20436;-77
2021/09/20 11:49:02;;;;;;;2.47;2.28;;;16.20;96.50;;;;;;5071757;28;20438;-78
2021/09/20 11:51:30;;;;;;;2.33;2.00;;;16.30;95.40;;;;;;5057353;28;20352;-78
2021/09/20 11:53:58;;;;;;;3.00;2.20;;;16.30;95.70;;;;;;5057793;28;20531;-77
2021/09/20 11:56:28;;;;;;;2.80;2.30;;;16.30;95.80;;;;;;5056929;28;20475;-77
2021/09/20 11:58:58;;;;;;;3.70;2.47;;;16.30;95.80;;;;;;5056911;28;20891;-78
2021/09/20 12:01:29;;;;;;;2.87;2.40;;;16.20;95.90;;;;;;5056919;28;20520;-77
2021/09/20 12:03:59;;;;;;;3.70;2.20;;;16.20;96.10;;;;;;5056991;28;20480;-77
2021/09/20 12:06:32;;;;;;;3.50;3.03;;;16.20;96.20;;;;;;5056657;28;20416;-77
2021/09/20 12:09:03;;;;;;;4.30;2.67;;;16.30;96.40;;;;;;5057863;28;20426;-77
2021/09/20 12:11:32;;;;;;;2.23;2.03;;;16.30;96.40;;;;;;5056475;28;20412;-78
2021/09/20 12:14:00;;;;;;;3.40;2.57;;;16.30;96.30;;;;;;5056376;28;20445;-78
2021/09/20 12:16:29;;;;;;;3.17;2.50;;;16.30;96.40;;;;;;5057443;28;20430;-78
2021/09/20 12:18:58;;;;;;;3.55;2.70;;;16.30;96.50;;;;;;5057186;28;20444;-77
2021/09/20 12:21:29;;;;;;;5.57;3.20;;;16.30;96.50;;;;;;5056125;28;20207;-77
2021/09/20 12:23:58;;;;;;;4.87;2.83;;;16.30;96.60;;;;;;5055918;28;20939;-77
2021/09/20 12:26:28;;;;;;;4.23;2.80;;;16.30;96.60;;;;;;5054511;28;20494;-77
2021/09/20 12:28:58;;;;;;;3.20;2.67;;;16.40;96.40;;;;;;5055489;28;20536;-77
2021/09/20 12:31:40;;;;;;;3.30;2.80;;;16.40;96.60;;;;;;5056483;28;20459;-77
2021/09/20 12:34:13;;;;;;;3.60;2.97;;;16.40;96.60;;;;;;5055404;28;20437;-77
2021/09/20 12:36:43;;;;;;;3.40;2.53;;;16.40;96.60;;;;;;5058072;28;20483;-77
2021/09/20 12:39:13;;;;;;;3.60;3.07;;;16.40;96.80;;;;;;5055712;28;20441;-77
2021/09/20 12:41:45;;;;;;;3.43;3.13;;;16.30;96.80;;;;;;5055574;28;20467;-77
2021/09/20 12:44:30;;;;;;;3.67;3.33;;;16.30;96.80;;;;;;5055767;28;20416;-77
2021/09/20 12:47:04;;;;;;;3.60;3.30;;;16.30;96.80;;;;;;5057514;28;20429;-77
2021/09/20 12:49:34;;;;;;;3.40;2.60;;;16.30;96.80;;;;;;5055567;28;20430;-77
2021/09/20 12:52:03;;;;;;;4.60;3.90;;;16.30;96.90;;;;;;5055725;28;20448;-77
2021/09/20 12:54:33;;;;;;;3.73;2.73;;;16.20;96.80;;;;;;5055541;28;20593;-77
2021/09/20 12:57:20;;;;;;;3.00;2.70;;;16.30;96.60;;;;;;5056100;28;20422;-77
2021/09/20 13:00:00;;;;;;;2.90;2.27;;;16.30;95.70;;;;;;5056710;28;20274;-77
2021/09/20 13:02:30;;;;;;;4.22;2.70;;;16.30;96.00;;;;;;5072106;28;20850;-78